sensor_id;sensor_type;location;lat;lon;timestamp;P1;durP1;ratioP1;P2;durP2;ratioP2
69534;SDS011;56754;51.568;5.048;2023-06-14T00:00:25;8.93;;;3.23;;
69534;SDS011;56754;51.568;5.048;2023-06-14T00:02:51;6.13;;;3.20;;
69534;SDS011;56754;51.568;5.048;2023-06-14T00:05:16;7.07;;;2.93;;
69534;SDS011;56754;51.568;5.048;2023-06-14T00:07:42;8.95;;;3.10;;
69534;SDS011;56754;51.568;5.048;2023-06-14T00:10:07;7.30;;;2.80;;
69534;SDS011;56754;51.568;5.048;2023-06-14T00:12:33;6.70;;;3.00;;
69534;SDS011;56754;51.568;5.048;2023-06-14T00:14:58;5.93;;;3.20;;
69534;SDS011;56754;51.568;5.048;2023-06-14T00:17:23;5.97;;;3.10;;
69534;SDS011;56754;51.568;5.048;2023-06-14T00:19:48;4.68;;;2.72;;
69534;SDS011;56754;51.568;5.048;2023-06-14T00:22:14;6.33;;;2.97;;
69534;SDS011;56754;51.568;5.048;2023-06-14T00:24:39;4.80;;;2.40;;
69534;SDS011;56754;51.568;5.048;2023-06-14T00:27:04;5.47;;;3.10;;
69534;SDS011;56754;51.568;5.048;2023-06-14T00:29:30;5.90;;;3.15;;
69534;SDS011;56754;51.568;5.048;2023-06-14T00:31:55;7.90;;;2.83;;
69534;SDS011;56754;51.568;5.048;2023-06-14T00:34:21;5.13;;;2.90;;
69534;SDS011;56754;51.568;5.048;2023-06-14T00:36:46;6.30;;;2.83;;
69534;SDS011;56754;51.568;5.048;2023-06-14T00:39:12;5.40;;;2.83;;
69534;SDS011;56754;51.568;5.048;2023-06-14T00:41:37;4.77;;;2.77;;
69534;SDS011;56754;51.568;5.048;2023-06-14T00:44:03;5.77;;;2.80;;
69534;SDS011;56754;51.568;5.048;2023-06-14T00:46:29;5.35;;;2.78;;
69534;SDS011;56754;51.568;5.048;2023-06-14T00:48:54;8.07;;;3.03;;
69534;SDS011;56754;51.568;5.048;2023-06-14T00:51:21;6.93;;;3.20;;
69534;SDS011;56754;51.568;5.048;2023-06-14T00:53:47;7.07;;;2.80;;
69534;SDS011;56754;51.568;5.048;2023-06-14T00:56:13;6.60;;;2.70;;
69534;SDS011;56754;51.568;5.048;2023-06-14T00:58:39;5.90;;;2.72;;
69534;SDS011;56754;51.568;5.048;2023-06-14T01:01:04;5.67;;;2.47;;
69534;SDS011;56754;51.568;5.048;2023-06-14T01:03:30;4.90;;;2.50;;
69534;SDS011;56754;51.568;5.048;2023-06-14T01:06:02;5.28;;;2.97;;
69534;SDS011;56754;51.568;5.048;2023-06-14T01:11:22;5.47;;;2.73;;
69534;SDS011;56754;51.568;5.048;2023-06-14T01:13:56;6.15;;;2.72;;
69534;SDS011;56754;51.568;5.048;2023-06-14T01:16:24;5.85;;;2.92;;
69534;SDS011;56754;51.568;5.048;2023-06-14T01:18:51;6.20;;;2.60;;
69534;SDS011;56754;51.568;5.048;2023-06-14T01:21:24;6.88;;;2.70;;
69534;SDS011;56754;51.568;5.048;2023-06-14T01:23:52;5.93;;;2.70;;
69534;SDS011;56754;51.568;5.048;2023-06-14T01:26:21;7.70;;;2.80;;
69534;SDS011;56754;51.568;5.048;2023-06-14T01:28:47;5.90;;;2.85;;
69534;SDS011;56754;51.568;5.048;2023-06-14T01:31:16;5.17;;;2.50;;
69534;SDS011;56754;51.568;5.048;2023-06-14T01:33:44;5.07;;;2.45;;
69534;SDS011;56754;51.568;5.048;2023-06-14T01:36:11;6.80;;;2.58;;
69534;SDS011;56754;51.568;5.048;2023-06-14T01:38:37;5.75;;;2.60;;
69534;SDS011;56754;51.568;5.048;2023-06-14T01:41:03;5.50;;;2.75;;
69534;SDS011;56754;51.568;5.048;2023-06-14T01:43:29;4.80;;;2.43;;
69534;SDS011;56754;51.568;5.048;2023-06-14T01:45:55;4.78;;;2.60;;
69534;SDS011;56754;51.568;5.048;2023-06-14T01:48:22;5.15;;;2.42;;
69534;SDS011;56754;51.568;5.048;2023-06-14T01:50:49;8.30;;;2.55;;
69534;SDS011;56754;51.568;5.048;2023-06-14T01:53:14;6.53;;;2.58;;
69534;SDS011;56754;51.568;5.048;2023-06-14T01:55:40;6.93;;;2.73;;
69534;SDS011;56754;51.568;5.048;2023-06-14T01:58:05;5.57;;;2.60;;
69534;SDS011;56754;51.568;5.048;2023-06-14T02:00:31;5.57;;;2.40;;
69534;SDS011;56754;51.568;5.048;2023-06-14T02:02:56;5.73;;;2.60;;
69534;SDS011;56754;51.568;5.048;2023-06-14T02:05:22;7.20;;;2.80;;
69534;SDS011;56754;51.568;5.048;2023-06-14T02:07:47;4.55;;;2.38;;
69534;SDS011;56754;51.568;5.048;2023-06-14T02:10:13;4.60;;;2.40;;
69534;SDS011;56754;51.568;5.048;2023-06-14T02:12:39;5.68;;;2.38;;
69534;SDS011;56754;51.568;5.048;2023-06-14T02:15:04;4.90;;;2.40;;
69534;SDS011;56754;51.568;5.048;2023-06-14T02:17:30;5.03;;;2.50;;
69534;SDS011;56754;51.568;5.048;2023-06-14T02:19:55;5.70;;;2.80;;
69534;SDS011;56754;51.568;5.048;2023-06-14T02:22:20;5.03;;;2.87;;
69534;SDS011;56754;51.568;5.048;2023-06-14T02:24:49;6.90;;;2.45;;
69534;SDS011;56754;51.568;5.048;2023-06-14T02:27:14;5.73;;;2.90;;
69534;SDS011;56754;51.568;5.048;2023-06-14T02:29:39;6.27;;;2.50;;
69534;SDS011;56754;51.568;5.048;2023-06-14T02:32:05;6.67;;;2.57;;
69534;SDS011;56754;51.568;5.048;2023-06-14T02:34:30;6.65;;;2.80;;
69534;SDS011;56754;51.568;5.048;2023-06-14T02:36:56;5.90;;;2.33;;
69534;SDS011;56754;51.568;5.048;2023-06-14T02:39:21;6.77;;;2.60;;
69534;SDS011;56754;51.568;5.048;2023-06-14T02:41:46;5.13;;;2.58;;
69534;SDS011;56754;51.568;5.048;2023-06-14T02:44:13;4.73;;;2.40;;
69534;SDS011;56754;51.568;5.048;2023-06-14T02:46:38;5.78;;;2.17;;
69534;SDS011;56754;51.568;5.048;2023-06-14T02:49:04;5.63;;;2.30;;
69534;SDS011;56754;51.568;5.048;2023-06-14T02:51:29;5.70;;;2.63;;
69534;SDS011;56754;51.568;5.048;2023-06-14T02:53:54;8.27;;;2.60;;
69534;SDS011;56754;51.568;5.048;2023-06-14T02:56:20;5.23;;;2.40;;
69534;SDS011;56754;51.568;5.048;2023-06-14T02:58:45;5.97;;;2.70;;
69534;SDS011;56754;51.568;5.048;2023-06-14T03:01:10;5.83;;;2.67;;
69534;SDS011;56754;51.568;5.048;2023-06-14T03:03:36;5.60;;;2.77;;
69534;SDS011;56754;51.568;5.048;2023-06-14T03:06:01;6.37;;;2.43;;
69534;SDS011;56754;51.568;5.048;2023-06-14T03:08:26;5.90;;;2.63;;
69534;SDS011;56754;51.568;5.048;2023-06-14T03:10:52;5.50;;;2.67;;
69534;SDS011;56754;51.568;5.048;2023-06-14T03:13:17;4.68;;;2.50;;
69534;SDS011;56754;51.568;5.048;2023-06-14T03:15:43;4.60;;;2.17;;
69534;SDS011;56754;51.568;5.048;2023-06-14T03:18:08;5.17;;;2.40;;
69534;SDS011;56754;51.568;5.048;2023-06-14T03:20:34;5.43;;;2.60;;
69534;SDS011;56754;51.568;5.048;2023-06-14T03:23:00;6.38;;;2.65;;
69534;SDS011;56754;51.568;5.048;2023-06-14T03:25:27;5.63;;;2.50;;
69534;SDS011;56754;51.568;5.048;2023-06-14T03:27:52;6.32;;;2.58;;
69534;SDS011;56754;51.568;5.048;2023-06-14T03:30:17;5.83;;;2.80;;
69534;SDS011;56754;51.568;5.048;2023-06-14T03:32:43;5.40;;;2.40;;
69534;SDS011;56754;51.568;5.048;2023-06-14T03:35:08;5.00;;;2.43;;
69534;SDS011;56754;51.568;5.048;2023-06-14T03:37:34;6.43;;;2.70;;
69534;SDS011;56754;51.568;5.048;2023-06-14T03:39:59;5.30;;;2.10;;
69534;SDS011;56754;51.568;5.048;2023-06-14T03:42:24;4.70;;;2.43;;
69534;SDS011;56754;51.568;5.048;2023-06-14T03:44:50;6.83;;;2.60;;
69534;SDS011;56754;51.568;5.048;2023-06-14T03:47:15;4.93;;;2.30;;
69534;SDS011;56754;51.568;5.048;2023-06-14T03:49:40;6.47;;;2.53;;
69534;SDS011;56754;51.568;5.048;2023-06-14T03:52:06;4.73;;;2.47;;
69534;SDS011;56754;51.568;5.048;2023-06-14T03:54:31;4.68;;;2.40;;
69534;SDS011;56754;51.568;5.048;2023-06-14T03:56:56;6.33;;;2.60;;
69534;SDS011;56754;51.568;5.048;2023-06-14T03:59:22;6.00;;;2.40;;
69534;SDS011;56754;51.568;5.048;2023-06-14T04:01:48;4.90;;;2.40;;
69534;SDS011;56754;51.568;5.048;2023-06-14T04:04:13;5.33;;;2.63;;
69534;SDS011;56754;51.568;5.048;2023-06-14T04:06:39;7.40;;;2.53;;
69534;SDS011;56754;51.568;5.048;2023-06-14T04:09:04;6.40;;;2.30;;
69534;SDS011;56754;51.568;5.048;2023-06-14T04:11:29;5.47;;;2.60;;
69534;SDS011;56754;51.568;5.048;2023-06-14T04:13:55;5.40;;;2.33;;
69534;SDS011;56754;51.568;5.048;2023-06-14T04:16:20;5.83;;;2.43;;
69534;SDS011;56754;51.568;5.048;2023-06-14T04:18:46;7.63;;;2.50;;
69534;SDS011;56754;51.568;5.048;2023-06-14T04:21:11;4.87;;;2.47;;
69534;SDS011;56754;51.568;5.048;2023-06-14T04:23:36;5.90;;;2.30;;
69534;SDS011;56754;51.568;5.048;2023-06-14T04:26:02;6.57;;;2.37;;
69534;SDS011;56754;51.568;5.048;2023-06-14T04:28:27;4.88;;;2.35;;
69534;SDS011;56754;51.568;5.048;2023-06-14T04:30:53;7.70;;;2.30;;
69534;SDS011;56754;51.568;5.048;2023-06-14T04:33:18;5.13;;;2.30;;
69534;SDS011;56754;51.568;5.048;2023-06-14T04:35:43;6.37;;;2.60;;
69534;SDS011;56754;51.568;5.048;2023-06-14T04:38:08;5.10;;;2.53;;
69534;SDS011;56754;51.568;5.048;2023-06-14T04:40:34;6.03;;;2.23;;
69534;SDS011;56754;51.568;5.048;2023-06-14T04:43:00;5.05;;;2.42;;
69534;SDS011;56754;51.568;5.048;2023-06-14T04:45:26;5.67;;;2.23;;
69534;SDS011;56754;51.568;5.048;2023-06-14T04:47:51;5.33;;;2.67;;
69534;SDS011;56754;51.568;5.048;2023-06-14T04:50:16;6.23;;;2.67;;
69534;SDS011;56754;51.568;5.048;2023-06-14T04:52:42;7.27;;;2.70;;
69534;SDS011;56754;51.568;5.048;2023-06-14T04:55:07;7.97;;;2.40;;
69534;SDS011;56754;51.568;5.048;2023-06-14T04:57:33;4.68;;;2.15;;
69534;SDS011;56754;51.568;5.048;2023-06-14T04:59:58;5.67;;;2.20;;
69534;SDS011;56754;51.568;5.048;2023-06-14T05:02:24;5.10;;;2.50;;
69534;SDS011;56754;51.568;5.048;2023-06-14T05:04:50;4.82;;;2.50;;
69534;SDS011;56754;51.568;5.048;2023-06-14T05:07:15;7.50;;;2.57;;
69534;SDS011;56754;51.568;5.048;2023-06-14T05:09:41;6.00;;;2.47;;
69534;SDS011;56754;51.568;5.048;2023-06-14T05:12:06;6.40;;;2.50;;
69534;SDS011;56754;51.568;5.048;2023-06-14T05:14:32;5.03;;;2.20;;
69534;SDS011;56754;51.568;5.048;2023-06-14T05:16:57;7.03;;;2.30;;
69534;SDS011;56754;51.568;5.048;2023-06-14T05:19:25;6.57;;;2.20;;
69534;SDS011;56754;51.568;5.048;2023-06-14T05:21:50;7.90;;;2.50;;
69534;SDS011;56754;51.568;5.048;2023-06-14T05:24:16;5.23;;;2.30;;
69534;SDS011;56754;51.568;5.048;2023-06-14T05:26:41;4.80;;;2.40;;
69534;SDS011;56754;51.568;5.048;2023-06-14T05:29:06;4.93;;;2.20;;
69534;SDS011;56754;51.568;5.048;2023-06-14T05:31:32;4.73;;;2.17;;
69534;SDS011;56754;51.568;5.048;2023-06-14T05:33:57;7.57;;;2.60;;
69534;SDS011;56754;51.568;5.048;2023-06-14T05:36:22;6.83;;;2.40;;
69534;SDS011;56754;51.568;5.048;2023-06-14T05:38:48;6.07;;;2.30;;
69534;SDS011;56754;51.568;5.048;2023-06-14T05:41:13;5.30;;;2.50;;
69534;SDS011;56754;51.568;5.048;2023-06-14T05:43:39;4.80;;;2.25;;
69534;SDS011;56754;51.568;5.048;2023-06-14T05:46:04;4.80;;;2.17;;
69534;SDS011;56754;51.568;5.048;2023-06-14T05:48:30;4.97;;;2.33;;
69534;SDS011;56754;51.568;5.048;2023-06-14T05:50:55;5.97;;;2.17;;
69534;SDS011;56754;51.568;5.048;2023-06-14T05:53:21;6.30;;;2.10;;
69534;SDS011;56754;51.568;5.048;2023-06-14T05:55:46;5.60;;;2.10;;
69534;SDS011;56754;51.568;5.048;2023-06-14T05:58:11;5.97;;;2.30;;
69534;SDS011;56754;51.568;5.048;2023-06-14T06:00:37;4.53;;;1.97;;
69534;SDS011;56754;51.568;5.048;2023-06-14T06:03:02;5.05;;;2.10;;
69534;SDS011;56754;51.568;5.048;2023-06-14T06:05:27;6.37;;;2.40;;
69534;SDS011;56754;51.568;5.048;2023-06-14T06:07:53;5.40;;;2.30;;
69534;SDS011;56754;51.568;5.048;2023-06-14T06:10:18;5.23;;;2.43;;
69534;SDS011;56754;51.568;5.048;2023-06-14T06:12:43;5.73;;;2.20;;
69534;SDS011;56754;51.568;5.048;2023-06-14T06:15:10;4.50;;;2.20;;
69534;SDS011;56754;51.568;5.048;2023-06-14T06:17:35;4.75;;;2.03;;
69534;SDS011;56754;51.568;5.048;2023-06-14T06:20:01;4.77;;;2.20;;
69534;SDS011;56754;51.568;5.048;2023-06-14T06:22:26;5.43;;;2.33;;
69534;SDS011;56754;51.568;5.048;2023-06-14T06:24:51;4.97;;;2.23;;
69534;SDS011;56754;51.568;5.048;2023-06-14T06:27:16;5.57;;;2.13;;
69534;SDS011;56754;51.568;5.048;2023-06-14T06:29:42;6.50;;;2.33;;
69534;SDS011;56754;51.568;5.048;2023-06-14T06:32:07;5.97;;;2.30;;
69534;SDS011;56754;51.568;5.048;2023-06-14T06:34:32;5.40;;;2.17;;
69534;SDS011;56754;51.568;5.048;2023-06-14T06:36:58;5.80;;;2.13;;
69534;SDS011;56754;51.568;5.048;2023-06-14T06:39:23;7.77;;;2.20;;
69534;SDS011;56754;51.568;5.048;2023-06-14T06:41:48;5.73;;;2.30;;
69534;SDS011;56754;51.568;5.048;2023-06-14T06:44:14;4.63;;;2.10;;
69534;SDS011;56754;51.568;5.048;2023-06-14T06:46:39;4.90;;;2.30;;
69534;SDS011;56754;51.568;5.048;2023-06-14T06:49:04;5.77;;;2.20;;
69534;SDS011;56754;51.568;5.048;2023-06-14T06:51:30;5.57;;;2.20;;
69534;SDS011;56754;51.568;5.048;2023-06-14T06:53:55;5.97;;;2.00;;
69534;SDS011;56754;51.568;5.048;2023-06-14T06:56:21;4.83;;;2.17;;
69534;SDS011;56754;51.568;5.048;2023-06-14T06:58:46;7.10;;;2.28;;
69534;SDS011;56754;51.568;5.048;2023-06-14T07:01:12;5.57;;;2.13;;
69534;SDS011;56754;51.568;5.048;2023-06-14T07:03:37;6.10;;;2.20;;
69534;SDS011;56754;51.568;5.048;2023-06-14T07:06:02;5.83;;;2.00;;
69534;SDS011;56754;51.568;5.048;2023-06-14T07:08:28;6.07;;;2.40;;
69534;SDS011;56754;51.568;5.048;2023-06-14T07:10:54;4.33;;;1.90;;
69534;SDS011;56754;51.568;5.048;2023-06-14T07:13:19;5.30;;;2.30;;
69534;SDS011;56754;51.568;5.048;2023-06-14T07:15:44;5.30;;;2.28;;
69534;SDS011;56754;51.568;5.048;2023-06-14T07:18:10;7.30;;;2.20;;
69534;SDS011;56754;51.568;5.048;2023-06-14T07:20:35;5.47;;;2.30;;
69534;SDS011;56754;51.568;5.048;2023-06-14T07:23:00;5.27;;;2.30;;
69534;SDS011;56754;51.568;5.048;2023-06-14T07:25:26;5.93;;;2.30;;
69534;SDS011;56754;51.568;5.048;2023-06-14T07:27:51;8.37;;;2.40;;
69534;SDS011;56754;51.568;5.048;2023-06-14T07:30:16;5.60;;;2.10;;
69534;SDS011;56754;51.568;5.048;2023-06-14T07:32:42;5.67;;;2.40;;
69534;SDS011;56754;51.568;5.048;2023-06-14T07:35:07;5.13;;;2.20;;
69534;SDS011;56754;51.568;5.048;2023-06-14T07:37:33;7.00;;;2.30;;
69534;SDS011;56754;51.568;5.048;2023-06-14T07:39:58;5.87;;;2.27;;
69534;SDS011;56754;51.568;5.048;2023-06-14T07:42:23;6.53;;;2.63;;
69534;SDS011;56754;51.568;5.048;2023-06-14T07:44:49;6.30;;;2.53;;
69534;SDS011;56754;51.568;5.048;2023-06-14T07:47:14;10.63;;;2.80;;
69534;SDS011;56754;51.568;5.048;2023-06-14T07:49:39;6.20;;;2.50;;
69534;SDS011;56754;51.568;5.048;2023-06-14T07:52:05;5.97;;;2.67;;
69534;SDS011;56754;51.568;5.048;2023-06-14T07:54:30;6.57;;;2.40;;
69534;SDS011;56754;51.568;5.048;2023-06-14T07:56:56;5.85;;;2.17;;
69534;SDS011;56754;51.568;5.048;2023-06-14T07:59:21;5.00;;;2.10;;
69534;SDS011;56754;51.568;5.048;2023-06-14T08:01:46;5.00;;;2.33;;
69534;SDS011;56754;51.568;5.048;2023-06-14T08:04:12;4.07;;;1.93;;
69534;SDS011;56754;51.568;5.048;2023-06-14T08:06:38;6.75;;;2.70;;
69534;SDS011;56754;51.568;5.048;2023-06-14T08:09:03;5.67;;;2.40;;
69534;SDS011;56754;51.568;5.048;2023-06-14T08:11:28;4.20;;;1.97;;
69534;SDS011;56754;51.568;5.048;2023-06-14T08:13:54;5.20;;;2.10;;
69534;SDS011;56754;51.568;5.048;2023-06-14T08:16:19;6.03;;;2.20;;
69534;SDS011;56754;51.568;5.048;2023-06-14T08:18:44;4.40;;;1.90;;
69534;SDS011;56754;51.568;5.048;2023-06-14T08:21:10;5.47;;;2.47;;
69534;SDS011;56754;51.568;5.048;2023-06-14T08:23:36;4.35;;;2.15;;
69534;SDS011;56754;51.568;5.048;2023-06-14T08:26:01;5.33;;;2.30;;
69534;SDS011;56754;51.568;5.048;2023-06-14T08:28:28;5.17;;;2.17;;
69534;SDS011;56754;51.568;5.048;2023-06-14T08:30:53;5.43;;;2.30;;
69534;SDS011;56754;51.568;5.048;2023-06-14T08:33:18;6.07;;;2.37;;
69534;SDS011;56754;51.568;5.048;2023-06-14T08:35:44;6.53;;;2.37;;
69534;SDS011;56754;51.568;5.048;2023-06-14T08:38:10;5.37;;;2.17;;
69534;SDS011;56754;51.568;5.048;2023-06-14T08:40:36;4.80;;;2.20;;
69534;SDS011;56754;51.568;5.048;2023-06-14T08:43:02;5.40;;;2.40;;
69534;SDS011;56754;51.568;5.048;2023-06-14T08:45:27;4.90;;;2.10;;
69534;SDS011;56754;51.568;5.048;2023-06-14T08:47:53;5.43;;;2.10;;
69534;SDS011;56754;51.568;5.048;2023-06-14T08:50:22;6.60;;;2.40;;
69534;SDS011;56754;51.568;5.048;2023-06-14T08:52:48;5.63;;;2.40;;
69534;SDS011;56754;51.568;5.048;2023-06-14T08:55:16;6.72;;;2.70;;
69534;SDS011;56754;51.568;5.048;2023-06-14T08:57:42;5.20;;;2.40;;
69534;SDS011;56754;51.568;5.048;2023-06-14T09:00:08;5.15;;;2.28;;
69534;SDS011;56754;51.568;5.048;2023-06-14T09:02:34;6.20;;;2.10;;
69534;SDS011;56754;51.568;5.048;2023-06-14T09:04:59;4.73;;;2.27;;
69534;SDS011;56754;51.568;5.048;2023-06-14T09:07:25;4.80;;;2.20;;
69534;SDS011;56754;51.568;5.048;2023-06-14T09:10:02;8.40;;;2.43;;
69534;SDS011;56754;51.568;5.048;2023-06-14T09:12:32;6.88;;;2.50;;
69534;SDS011;56754;51.568;5.048;2023-06-14T09:14:58;4.43;;;2.10;;
69534;SDS011;56754;51.568;5.048;2023-06-14T09:17:24;5.47;;;2.20;;
69534;SDS011;56754;51.568;5.048;2023-06-14T09:19:50;5.13;;;2.00;;
69534;SDS011;56754;51.568;5.048;2023-06-14T09:22:16;4.30;;;2.10;;
69534;SDS011;56754;51.568;5.048;2023-06-14T09:24:41;4.88;;;2.20;;
69534;SDS011;56754;51.568;5.048;2023-06-14T09:27:07;6.10;;;2.30;;
69534;SDS011;56754;51.568;5.048;2023-06-14T09:29:32;4.47;;;1.90;;
69534;SDS011;56754;51.568;5.048;2023-06-14T09:31:57;5.30;;;1.95;;
69534;SDS011;56754;51.568;5.048;2023-06-14T09:34:23;5.47;;;2.07;;
69534;SDS011;56754;51.568;5.048;2023-06-14T09:36:48;4.88;;;2.10;;
69534;SDS011;56754;51.568;5.048;2023-06-14T09:39:16;4.83;;;2.27;;
69534;SDS011;56754;51.568;5.048;2023-06-14T09:41:42;4.70;;;2.17;;
69534;SDS011;56754;51.568;5.048;2023-06-14T09:44:08;5.10;;;2.10;;
69534;SDS011;56754;51.568;5.048;2023-06-14T09:46:34;4.88;;;2.00;;
69534;SDS011;56754;51.568;5.048;2023-06-14T09:49:01;6.40;;;2.37;;
69534;SDS011;56754;51.568;5.048;2023-06-14T09:51:27;4.85;;;1.88;;
69534;SDS011;56754;51.568;5.048;2023-06-14T09:53:55;4.53;;;2.20;;
69534;SDS011;56754;51.568;5.048;2023-06-14T09:58:54;4.45;;;2.00;;
69534;SDS011;56754;51.568;5.048;2023-06-14T10:01:27;4.73;;;2.10;;
69534;SDS011;56754;51.568;5.048;2023-06-14T10:03:55;4.68;;;2.90;;
69534;SDS011;56754;51.568;5.048;2023-06-14T10:06:27;5.88;;;3.45;;
69534;SDS011;56754;51.568;5.048;2023-06-14T10:08:56;8.10;;;4.55;;
69534;SDS011;56754;51.568;5.048;2023-06-14T10:11:23;6.63;;;2.85;;
69534;SDS011;56754;51.568;5.048;2023-06-14T10:13:50;5.17;;;2.50;;
69534;SDS011;56754;51.568;5.048;2023-06-14T10:16:17;6.38;;;2.72;;
69534;SDS011;56754;51.568;5.048;2023-06-14T10:18:51;5.20;;;2.58;;
69534;SDS011;56754;51.568;5.048;2023-06-14T10:21:28;4.07;;;2.00;;
69534;SDS011;56754;51.568;5.048;2023-06-14T10:24:03;4.90;;;1.90;;
69534;SDS011;56754;51.568;5.048;2023-06-14T10:26:31;4.72;;;2.00;;
69534;SDS011;56754;51.568;5.048;2023-06-14T10:29:00;4.27;;;1.90;;
69534;SDS011;56754;51.568;5.048;2023-06-14T10:32:05;3.72;;;1.50;;
69534;SDS011;56754;51.568;5.048;2023-06-14T10:34:28;3.47;;;1.48;;
69534;SDS011;56754;51.568;5.048;2023-06-14T10:37:27;3.88;;;1.70;;
69534;SDS011;56754;51.568;5.048;2023-06-14T10:39:46;4.45;;;1.60;;
69534;SDS011;56754;51.568;5.048;2023-06-14T10:42:11;3.63;;;1.60;;
69534;SDS011;56754;51.568;5.048;2023-06-14T10:47:06;6.18;;;1.58;;
69534;SDS011;56754;51.568;5.048;2023-06-14T10:49:41;4.30;;;1.50;;
69534;SDS011;56754;51.568;5.048;2023-06-14T10:52:14;5.45;;;2.00;;
69534;SDS011;56754;51.568;5.048;2023-06-14T10:54:54;3.88;;;1.42;;
69534;SDS011;56754;51.568;5.048;2023-06-14T10:57:20;4.40;;;1.40;;
69534;SDS011;56754;51.568;5.048;2023-06-14T10:59:46;3.43;;;1.40;;
69534;SDS011;56754;51.568;5.048;2023-06-14T11:04:58;3.70;;;1.50;;
69534;SDS011;56754;51.568;5.048;2023-06-14T11:12:47;2.80;;;1.20;;
69534;SDS011;56754;51.568;5.048;2023-06-14T11:15:13;4.60;;;1.40;;
69534;SDS011;56754;51.568;5.048;2023-06-14T11:17:38;3.47;;;1.40;;
69534;SDS011;56754;51.568;5.048;2023-06-14T11:20:10;3.70;;;1.53;;
69534;SDS011;56754;51.568;5.048;2023-06-14T11:22:41;3.53;;;1.30;;
69534;SDS011;56754;51.568;5.048;2023-06-14T11:25:08;4.63;;;1.27;;
69534;SDS011;56754;51.568;5.048;2023-06-14T11:27:34;5.25;;;1.50;;
69534;SDS011;56754;51.568;5.048;2023-06-14T11:29:59;3.50;;;1.20;;
69534;SDS011;56754;51.568;5.048;2023-06-14T11:32:25;2.80;;;1.30;;
69534;SDS011;56754;51.568;5.048;2023-06-14T11:34:50;2.97;;;1.17;;
69534;SDS011;56754;51.568;5.048;2023-06-14T11:37:15;4.67;;;1.50;;
69534;SDS011;56754;51.568;5.048;2023-06-14T11:39:44;3.43;;;1.40;;
69534;SDS011;56754;51.568;5.048;2023-06-14T11:42:13;3.10;;;1.30;;
69534;SDS011;56754;51.568;5.048;2023-06-14T11:44:39;3.10;;;1.40;;
69534;SDS011;56754;51.568;5.048;2023-06-14T11:47:05;3.70;;;1.30;;
69534;SDS011;56754;51.568;5.048;2023-06-14T11:49:34;9.20;;;4.10;;
69534;SDS011;56754;51.568;5.048;2023-06-14T11:52:00;3.70;;;1.25;;
69534;SDS011;56754;51.568;5.048;2023-06-14T11:54:26;2.80;;;1.23;;
69534;SDS011;56754;51.568;5.048;2023-06-14T11:56:51;3.73;;;1.50;;
69534;SDS011;56754;51.568;5.048;2023-06-14T11:59:16;2.95;;;1.20;;
69534;SDS011;56754;51.568;5.048;2023-06-14T12:01:42;5.20;;;1.40;;
69534;SDS011;56754;51.568;5.048;2023-06-14T12:04:08;2.92;;;1.20;;
69534;SDS011;56754;51.568;5.048;2023-06-14T12:06:33;2.90;;;1.20;;
69534;SDS011;56754;51.568;5.048;2023-06-14T12:08:59;3.33;;;1.30;;
69534;SDS011;56754;51.568;5.048;2023-06-14T12:11:31;3.33;;;1.40;;
69534;SDS011;56754;51.568;5.048;2023-06-14T12:13:57;2.90;;;1.20;;
69534;SDS011;56754;51.568;5.048;2023-06-14T12:16:29;3.23;;;1.30;;
69534;SDS011;56754;51.568;5.048;2023-06-14T12:18:56;3.33;;;1.42;;
69534;SDS011;56754;51.568;5.048;2023-06-14T12:21:25;3.50;;;1.10;;
69534;SDS011;56754;51.568;5.048;2023-06-14T12:23:51;3.15;;;1.30;;
69534;SDS011;56754;51.568;5.048;2023-06-14T12:26:18;3.35;;;1.20;;
69534;SDS011;56754;51.568;5.048;2023-06-14T12:28:45;2.83;;;1.23;;
69534;SDS011;56754;51.568;5.048;2023-06-14T12:31:12;3.20;;;1.30;;
69534;SDS011;56754;51.568;5.048;2023-06-14T12:33:41;3.90;;;1.40;;
69534;SDS011;56754;51.568;5.048;2023-06-14T12:36:07;2.58;;;1.13;;
69534;SDS011;56754;51.568;5.048;2023-06-14T12:38:33;3.42;;;1.20;;
69534;SDS011;56754;51.568;5.048;2023-06-14T12:41:00;3.28;;;1.30;;
69534;SDS011;56754;51.568;5.048;2023-06-14T12:43:25;2.10;;;1.00;;
69534;SDS011;56754;51.568;5.048;2023-06-14T12:45:51;3.00;;;1.30;;
69534;SDS011;56754;51.568;5.048;2023-06-14T12:48:16;3.40;;;1.60;;
69534;SDS011;56754;51.568;5.048;2023-06-14T12:50:41;3.30;;;1.30;;
69534;SDS011;56754;51.568;5.048;2023-06-14T12:53:07;2.97;;;1.20;;
69534;SDS011;56754;51.568;5.048;2023-06-14T12:55:32;4.53;;;1.27;;
69534;SDS011;56754;51.568;5.048;2023-06-14T12:57:58;2.67;;;1.10;;
69534;SDS011;56754;51.568;5.048;2023-06-14T13:00:23;3.03;;;1.20;;
69534;SDS011;56754;51.568;5.048;2023-06-14T13:02:48;2.40;;;1.17;;
69534;SDS011;56754;51.568;5.048;2023-06-14T13:05:14;2.97;;;1.23;;
69534;SDS011;56754;51.568;5.048;2023-06-14T13:07:39;3.90;;;1.23;;
69534;SDS011;56754;51.568;5.048;2023-06-14T13:10:04;3.43;;;1.10;;
69534;SDS011;56754;51.568;5.048;2023-06-14T13:12:30;3.03;;;1.30;;
69534;SDS011;56754;51.568;5.048;2023-06-14T13:14:55;2.75;;;1.17;;
69534;SDS011;56754;51.568;5.048;2023-06-14T13:17:21;3.03;;;1.20;;
69534;SDS011;56754;51.568;5.048;2023-06-14T13:19:46;3.23;;;1.30;;
69534;SDS011;56754;51.568;5.048;2023-06-14T13:22:11;3.03;;;1.10;;
69534;SDS011;56754;51.568;5.048;2023-06-14T13:24:37;3.63;;;1.30;;
69534;SDS011;56754;51.568;5.048;2023-06-14T13:27:02;3.73;;;1.27;;
69534;SDS011;56754;51.568;5.048;2023-06-14T13:29:28;4.72;;;1.40;;
69534;SDS011;56754;51.568;5.048;2023-06-14T13:31:53;5.27;;;1.50;;
69534;SDS011;56754;51.568;5.048;2023-06-14T13:34:19;3.45;;;1.40;;
69534;SDS011;56754;51.568;5.048;2023-06-14T13:36:44;2.87;;;1.40;;
69534;SDS011;56754;51.568;5.048;2023-06-14T13:39:09;3.43;;;1.30;;
69534;SDS011;56754;51.568;5.048;2023-06-14T13:41:35;2.90;;;1.27;;
69534;SDS011;56754;51.568;5.048;2023-06-14T13:44:00;4.43;;;1.20;;
69534;SDS011;56754;51.568;5.048;2023-06-14T13:46:26;3.50;;;1.20;;
69534;SDS011;56754;51.568;5.048;2023-06-14T13:48:51;2.93;;;1.23;;
69534;SDS011;56754;51.568;5.048;2023-06-14T13:51:17;4.78;;;1.08;;
69534;SDS011;56754;51.568;5.048;2023-06-14T13:53:43;3.10;;;1.23;;
69534;SDS011;56754;51.568;5.048;2023-06-14T13:56:10;4.85;;;1.42;;
69534;SDS011;56754;51.568;5.048;2023-06-14T13:58:37;3.43;;;1.20;;
69534;SDS011;56754;51.568;5.048;2023-06-14T14:01:02;3.40;;;1.20;;
69534;SDS011;56754;51.568;5.048;2023-06-14T14:03:28;2.80;;;1.20;;
69534;SDS011;56754;51.568;5.048;2023-06-14T14:05:53;2.47;;;1.10;;
69534;SDS011;56754;51.568;5.048;2023-06-14T14:08:18;4.10;;;1.30;;
69534;SDS011;56754;51.568;5.048;2023-06-14T14:10:44;4.37;;;1.40;;
69534;SDS011;56754;51.568;5.048;2023-06-14T14:13:09;3.47;;;1.25;;
69534;SDS011;56754;51.568;5.048;2023-06-14T14:15:34;4.63;;;1.30;;
69534;SDS011;56754;51.568;5.048;2023-06-14T14:17:59;4.87;;;1.30;;
69534;SDS011;56754;51.568;5.048;2023-06-14T14:20:25;2.70;;;1.10;;
69534;SDS011;56754;51.568;5.048;2023-06-14T14:22:50;2.80;;;1.27;;
69534;SDS011;56754;51.568;5.048;2023-06-14T14:25:15;3.10;;;1.20;;
69534;SDS011;56754;51.568;5.048;2023-06-14T14:27:41;2.63;;;1.20;;
69534;SDS011;56754;51.568;5.048;2023-06-14T14:30:06;2.63;;;1.20;;
69534;SDS011;56754;51.568;5.048;2023-06-14T14:32:32;4.73;;;1.50;;
69534;SDS011;56754;51.568;5.048;2023-06-14T14:34:57;2.80;;;1.27;;
69534;SDS011;56754;51.568;5.048;2023-06-14T14:37:23;3.20;;;1.27;;
69534;SDS011;56754;51.568;5.048;2023-06-14T14:39:48;2.87;;;1.17;;
69534;SDS011;56754;51.568;5.048;2023-06-14T14:42:14;2.43;;;1.07;;
69534;SDS011;56754;51.568;5.048;2023-06-14T14:44:39;2.90;;;1.30;;
69534;SDS011;56754;51.568;5.048;2023-06-14T14:47:05;3.22;;;1.23;;
69534;SDS011;56754;51.568;5.048;2023-06-14T14:49:30;2.63;;;1.03;;
69534;SDS011;56754;51.568;5.048;2023-06-14T14:51:56;2.78;;;1.10;;
69534;SDS011;56754;51.568;5.048;2023-06-14T14:54:22;3.67;;;1.20;;
69534;SDS011;56754;51.568;5.048;2023-06-14T14:56:47;4.10;;;1.30;;